TJMZ

Details ICAO TJMZ (MAZ)
Name Mayaguez/Eugenio Maria De Hostos
Region USA (Puerto Rico)
Timezone America/Puerto_Rico (UTC-4.0)
Plans Departing 17
Arriving 13
Stats Elevation 28 ft / 9 m (AMSL)
Location 18.255644° -67.148451°
Runways 1
Magnetic Variation 12.712° W
Sunrise 2017-12-11 10:51:47 UTC / 2017-12-11 06:51:47 Local
Sunset 2017-12-11 21:55:00 UTC / 2017-12-11 17:55:00 Local
Advertisement - Login to hide

Runways

ID Width Length Bearing (true) Bearing (mag) Surface Threshold Offset Overrun Length
09 98 ft / 30 m 4,995 ft / 1,522 m 76.40° 89.11° Asphalt 0 ft / 0 m 0 ft / 0 m
27 98 ft / 30 m 4,995 ft / 1,522 m 256.41° 269.12° Asphalt 0 ft / 0 m 0 ft / 0 m

Map

Weather


0- 5 10 15 20 25 30 35+ Temperature / ° C

Clouds and Precipitation
Forecast for 2017-12-12 00:00 UTC. Updated an hour ago

Ground ~20,000 ft ~40,000 ft Winds

METAR

Not found

TAF

TAF TJMZ 112320Z 1200/1224 06008KT P6SM SCT030 FM121200 08004KT P6SM FEW030 FM121600 23007KT P6SM FEW150 AMD NOT SKED

Frequencies

Unicom 122.80 MHz CTAF/UNICOM
Approach 118.75 MHz SAN JUAN CNTR
Clearance 121.70 MHz CLNC DEL
Warning: Do not use this data for real-world aviation or navigation. No guarantee of current accuracy is given.